CST,Max TemperatureF,Mean TemperatureF,Min TemperatureF,Max Dew PointF,MeanDew PointF,Min DewpointF,Max Humidity, Mean Humidity, Min Humidity, Max Sea Level PressureIn, Mean Sea Level PressureIn, Min Sea Level PressureIn, Max VisibilityMiles, Mean VisibilityMiles, Min VisibilityMiles, Max Wind SpeedMPH, Mean Wind SpeedMPH, Max Gust SpeedMPH,PrecipitationIn, CloudCover, Events, WindDirDegrees
2013-12-1,55,45,35,43,37,32,87,71,51,30.27,30.15,29.98,10,10,10,8,4,,0.00,3,,153
2013-12-2,53,48,44,46,44,43,100,88,76,29.97,29.86,29.79,10,3,1,8,4,,0.26,8,Rain,154
2013-12-3,59,54,50,,,,,,,29.86,29.81,29.79,4,2,0,9,5,,0.00,7,Fog,137
2013-12-4,71,65,59,68,65,63,100,87,78,29.99,29.91,29.85,10,6,2,17,7,24,0.00,6,Rain,168
2013-12-5,75,68,59,72,70,68,100,95,78,30.04,29.98,29.94,10,8,5,12,7,18,0.00,6,Rain,189
2013-12-6,59,47,35,,,,,,,30.21,30.04,29.94,10,4,0,12,5,18,0.38,8,Fog-Rain-Thunderstorm,338
2013-12-7,37,35,33,37,36,36,100,100,100,30.37,30.30,30.20,10,9,2,15,10,20,0.00,8,,12
2013-12-8,50,44,37,,,,,,,30.23,30.13,30.06,10,5,2,10,5,,0.61,8,Rain-Thunderstorm,124
2013-12-9,50,46,39,50,50,50,100,100,100,30.16,30.10,30.00,10,5,0,10,5,16,0.48,8,Fog-Rain,346
2013-12-10,41,36,30,34,32,32,100,88,70,30.34,30.24,30.00,10,8,1,17,7,23,0.24,4,Rain,340
2013-12-11,53,40,26,36,31,25,100,65,44,30.43,30.38,30.34,10,8,2,9,4,,0.00,0,,5
2013-12-12,41,34,26,30,25,19,100,74,45,30.52,30.45,30.38,10,10,10,13,6,17,0.00,0,,347
2013-12-13,50,38,26,32,27,23,86,64,40,30.37,30.23,30.10,10,10,10,7,4,,0.00,1,,104
2013-12-14,53,45,37,45,37,32,100,76,61,30.10,29.90,29.80,10,8,1,26,8,32,0.43,7,Rain,212
2013-12-15,37,34,32,37,34,32,100,99,93,30.24,30.13,29.96,10,9,5,15,10,22,0.00,8,Rain,315
2013-12-16,53,40,28,36,34,32,100,67,47,30.27,30.21,30.17,10,8,2,13,5,20,0.00,1,,223
2013-12-17,60,46,33,41,37,32,100,68,45,30.26,30.18,30.10,10,10,10,21,8,25,0.00,0,,259
2013-12-18,51,42,32,32,28,23,93,61,33,30.36,30.29,30.24,10,10,10,8,4,,0.00,0,,39
2013-12-19,60,46,32,36,32,28,93,55,36,30.29,30.21,30.14,10,10,10,13,6,16,0.00,0,,155
2013-12-20,64,57,50,61,48,34,100,75,50,30.15,30.09,30.02,10,10,10,14,8,20,0.00,7,,161
2013-12-21,71,66,60,72,69,61,100,99,94,30.02,29.89,29.80,10,8,2,23,10,37,0.02,8,Rain-Thunderstorm,166
2013-12-22,69,60,51,70,63,55,100,100,100,30.08,29.96,29.80,10,8,2,21,9,33,1.01,8,Rain-Thunderstorm,185
2013-12-23,53,42,32,37,33,30,100,92,87,30.37,30.25,30.07,10,8,2,16,9,22,0.01,7,Rain,333
2013-12-24,35,30,26,30,26,21,100,83,60,30.48,30.41,30.36,10,10,10,15,8,21,0.00,1,,351
2013-12-25,46,34,21,32,27,21,100,76,53,30.41,30.35,30.29,10,10,10,8,4,,0.00,0,,109
2013-12-26,50,39,28,36,32,28,100,81,54,30.37,30.33,30.29,10,10,10,9,4,,0.00,0,,8
2013-12-27,53,40,26,34,32,30,100,72,44,30.44,30.37,30.33,10,10,7,7,4,,0.00,0,,51
2013-12-28,42,38,35,41,35,32,100,81,66,30.35,30.19,29.91,10,7,1,16,5,24,0.98,6,Rain,89
2013-12-29,51,45,39,46,43,41,100,92,76,30.07,29.98,29.89,10,8,2,9,4,,0.13,5,Rain,269
2013-12-30,42,38,35,43,39,36,100,97,87,30.25,30.16,30.07,10,7,4,9,5,,0.00,7,,323
2013-12-31,42,37,32,34,32,30,100,91,65,30.44,30.34,30.24,10,9,5,12,6,16,0.00,3,,348